Time;durP1;ratioP1;P1;durP2;ratioP2;P2;SDS_P1;SDS_P2;PMS_P1;PMS_P2;Temp;Humidity;BMP_temperature;BMP_pressure;BME280_temperature;BME280_humidity;BME280_pressure;Samples;Min_cycle;Max_cycle;Signal;HPM_P1;HPM_P2
2023/02/10 00:01:40;;;;;;;25.77;12.00;;;-3274.90;79.90;;;;;;5085683;28;20055;-62
2023/02/10 00:04:08;;;;;;;28.20;12.98;;;-3274.90;79.90;;;;;;5088930;28;20044;-61
2023/02/10 00:06:38;;;;;;;25.45;12.80;;;-3274.80;80.00;;;;;;5082937;28;20089;-62
2023/02/10 00:09:05;;;;;;;24.60;12.13;;;-3274.80;80.10;;;;;;5084851;28;20101;-62
2023/02/10 00:14:24;;;;;;;23.15;10.57;;;-3274.70;80.20;;;;;;5032037;28;20048;-67
2023/02/10 00:16:52;;;;;;;23.20;11.98;;;-3274.70;80.20;;;;;;5088220;28;20055;-64
2023/02/10 00:19:25;;;;;;;28.13;11.70;;;-3274.80;80.20;;;;;;5085806;28;20483;-64
2023/02/10 00:21:54;;;;;;;28.65;11.75;;;-3274.80;80.10;;;;;;5088665;28;20083;-72
2023/02/10 00:24:21;;;;;;;23.38;11.70;;;-3274.70;80.20;;;;;;5085949;28;20055;-71
2023/02/10 00:26:48;;;;;;;24.67;10.88;;;-3274.80;80.10;;;;;;5085849;28;20055;-72
2023/02/10 00:29:15;;;;;;;23.40;11.65;;;-3274.70;80.10;;;;;;5085411;28;20465;-70
2023/02/10 00:31:43;;;;;;;24.48;11.30;;;-3274.70;80.20;;;;;;5084520;28;20047;-60
2023/02/10 00:34:15;;;;;;;21.87;10.40;;;-3274.70;80.20;;;;;;5067719;28;20040;-60
2023/02/10 00:36:44;;;;;;;22.17;10.95;;;-3274.60;80.10;;;;;;5085236;28;20052;-61
2023/02/10 00:39:13;;;;;;;25.92;12.20;;;-3274.60;80.10;;;;;;5069252;28;20036;-61
2023/02/10 00:41:40;;;;;;;22.73;10.77;;;-3274.60;80.30;;;;;;5080504;28;20059;-71
2023/02/10 00:44:11;;;;;;;24.17;11.65;;;-3274.60;80.30;;;;;;5078411;28;20040;-69
2023/02/10 00:46:38;;;;;;;27.00;12.75;;;-3274.70;80.20;;;;;;5083340;28;20052;-61
2023/02/10 00:49:06;;;;;;;26.33;13.18;;;-3274.60;80.30;;;;;;5077851;28;20593;-61
2023/02/10 00:51:35;;;;;;;29.80;12.88;;;-3274.60;80.40;;;;;;5064570;28;20078;-62
2023/02/10 00:54:03;;;;;;;31.13;13.27;;;-3274.70;80.40;;;;;;5068084;28;20055;-62
2023/02/10 00:56:30;;;;;;;29.63;12.90;;;-3274.60;80.30;;;;;;5072763;28;20052;-65
2023/02/10 00:58:57;;;;;;;31.70;13.93;;;-3274.60;80.20;;;;;;5082138;28;20052;-66
2023/02/10 01:01:24;;;;;;;25.30;12.43;;;-3274.60;80.10;;;;;;5086516;28;20528;-66
2023/02/10 01:03:51;;;;;;;27.95;13.18;;;-3274.60;80.20;;;;;;5082441;28;20557;-66
2023/02/10 01:06:18;;;;;;;22.08;11.57;;;-3274.60;80.40;;;;;;5072862;28;20060;-62
2023/02/10 01:08:45;;;;;;;21.13;11.57;;;-3274.50;80.50;;;;;;5068220;28;20479;-61
2023/02/10 01:11:14;;;;;;;21.88;10.98;;;-3274.50;80.40;;;;;;5066342;28;20042;-62
2023/02/10 01:13:43;;;;;;;23.08;10.88;;;-3274.50;80.40;;;;;;5086712;28;20051;-62
2023/02/10 01:16:13;;;;;;;23.85;11.32;;;-3274.50;80.40;;;;;;5067814;28;20505;-72
2023/02/10 01:18:41;;;;;;;23.63;11.82;;;-3274.50;80.40;;;;;;5087290;28;20044;-70
2023/02/10 01:21:09;;;;;;;23.10;11.60;;;-3274.50;80.30;;;;;;5084167;28;20491;-70
2023/02/10 01:23:36;;;;;;;23.05;12.27;;;-3274.50;80.30;;;;;;5085623;28;20044;-71
2023/02/10 01:26:04;;;;;;;23.70;11.20;;;-3274.50;80.20;;;;;;5066429;28;20055;-60
2023/02/10 01:28:34;;;;;;;23.00;11.27;;;-3274.40;80.20;;;;;;5084669;28;20119;-61
2023/02/10 01:31:06;;;;;;;29.05;11.82;;;-3274.40;80.40;;;;;;5086671;28;20521;-70
2023/02/10 01:33:33;;;;;;;25.98;11.32;;;-3274.40;80.50;;;;;;5085602;28;20064;-71
2023/02/10 01:36:04;;;;;;;24.40;12.02;;;-3274.40;80.30;;;;;;5086400;28;20043;-66
2023/02/10 01:38:31;;;;;;;26.42;12.43;;;-3274.40;80.30;;;;;;5086454;28;20046;-67
2023/02/10 01:40:58;;;;;;;25.17;11.57;;;-3274.40;80.20;;;;;;5075838;28;20098;-61
2023/02/10 01:43:26;;;;;;;26.30;12.40;;;-3274.40;80.20;;;;;;5075301;28;20059;-62
2023/02/10 01:45:55;;;;;;;25.38;10.75;;;-3274.40;80.30;;;;;;5051329;28;20040;-61
2023/02/10 01:48:23;;;;;;;22.25;11.20;;;-3274.40;80.50;;;;;;5080366;28;20048;-61
2023/02/10 01:50:55;;;;;;;27.30;12.27;;;-3274.30;80.50;;;;;;5084209;28;20060;-64
2023/02/10 01:53:23;;;;;;;25.60;12.25;;;-3274.30;80.50;;;;;;5083343;28;20048;-64
2023/02/10 01:55:53;;;;;;;26.52;13.07;;;-3274.30;80.40;;;;;;5074493;28;20044;-68
2023/02/10 01:58:25;;;;;;;26.33;11.27;;;-3274.20;80.50;;;;;;5086141;28;20062;-65
2023/02/10 02:00:52;;;;;;;24.90;11.23;;;-3274.20;80.60;;;;;;5084328;28;21007;-62
2023/02/10 02:03:20;;;;;;;24.70;11.80;;;-3274.30;80.60;;;;;;5086125;28;20525;-60
2023/02/10 02:05:47;;;;;;;23.95;11.10;;;-3274.30;80.60;;;;;;5087546;28;20044;-66
2023/02/10 02:08:17;;;;;;;24.25;10.85;;;-3274.30;80.50;;;;;;5066678;28;20453;-66
2023/02/10 02:10:55;;;;;;;22.73;11.40;;;-3274.20;80.80;;;;;;5066465;28;20132;-72
2023/02/10 02:13:32;;;;;;;26.40;10.90;;;-3274.20;80.90;;;;;;5064647;28;20462;-71
2023/02/10 02:16:11;;;;;;;25.08;11.23;;;-3274.20;80.90;;;;;;5071529;28;20052;-72
2023/02/10 02:18:45;;;;;;;18.85;10.38;;;-3274.20;80.90;;;;;;5085837;28;20051;-73
2023/02/10 02:21:54;;;;;;;23.38;10.85;;;-3274.10;81.10;;;;;;5064944;28;20036;-65
2023/02/10 02:24:58;;;;;;;22.38;9.90;;;-3274.10;81.40;;;;;;5062277;28;20052;-64
2023/02/10 02:27:54;;;;;;;24.05;10.73;;;-3274.20;81.40;;;;;;5084622;28;20080;-62
2023/02/10 02:30:51;;;;;;;22.35;10.20;;;-3274.20;81.50;;;;;;5082089;28;20402;-60
2023/02/10 02:33:23;;;;;;;21.73;10.35;;;-3274.20;81.60;;;;;;5077847;28;20040;-62
2023/02/10 02:35:59;;;;;;;24.25;11.50;;;-3274.20;81.70;;;;;;5059480;28;20047;-67
2023/02/10 02:38:26;;;;;;;25.75;11.27;;;-3274.30;81.90;;;;;;5086214;28;20113;-65
2023/02/10 02:40:55;;;;;;;23.45;10.73;;;-3274.30;82.20;;;;;;5082881;28;20410;-70
2023/02/10 02:43:22;;;;;;;25.00;11.48;;;-3274.30;82.30;;;;;;5066036;28;20082;-71
2023/02/10 02:45:57;;;;;;;25.33;11.43;;;-3274.30;82.50;;;;;;5064045;28;20123;-61
2023/02/10 02:48:48;;;;;;;24.33;11.23;;;-3274.40;82.40;;;;;;5085519;28;20514;-61
2023/02/10 02:51:26;;;;;;;21.50;11.35;;;-3274.40;82.30;;;;;;5086096;28;20043;-61
2023/02/10 02:54:02;;;;;;;22.20;11.75;;;-3274.40;82.20;;;;;;5086976;28;20054;-60
2023/02/10 02:56:37;;;;;;;25.42;11.90;;;-3274.40;82.20;;;;;;5092057;28;20051;-61
2023/02/10 02:59:12;;;;;;;27.77;11.57;;;-3274.40;82.30;;;;;;5075609;28;20050;-61
2023/02/10 03:01:44;;;;;;;29.17;13.48;;;-3274.40;82.40;;;;;;5092551;28;20056;-60
2023/02/10 03:04:14;;;;;;;23.90;11.70;;;-3274.40;82.60;;;;;;5093290;28;20043;-61
2023/02/10 03:06:42;;;;;;;27.00;11.32;;;-3274.50;82.60;;;;;;5091643;28;20486;-66
2023/02/10 03:09:09;;;;;;;32.28;13.82;;;-3274.50;82.70;;;;;;5067684;28;20501;-66
2023/02/10 03:11:36;;;;;;;28.48;12.30;;;-3274.50;82.70;;;;;;5090688;28;20052;-61
2023/02/10 03:14:07;;;;;;;28.80;13.02;;;-3274.50;82.90;;;;;;5089356;28;20054;-61
2023/02/10 03:16:34;;;;;;;23.58;11.82;;;-3274.60;83.00;;;;;;5091876;28;20040;-61
2023/02/10 03:19:01;;;;;;;28.10;12.23;;;-3274.60;83.10;;;;;;5091741;28;20089;-61
2023/02/10 03:21:29;;;;;;;31.17;12.95;;;-3274.60;83.10;;;;;;5091465;28;20056;-61
2023/02/10 03:23:56;;;;;;;22.45;12.52;;;-3274.60;83.20;;;;;;5089978;28;20449;-60
2023/02/10 03:26:23;;;;;;;26.83;12.90;;;-3274.60;83.20;;;;;;5082324;28;20059;-62
2023/02/10 03:28:50;;;;;;;26.67;13.95;;;-3274.60;83.20;;;;;;5077388;28;20055;-62
2023/02/10 03:31:17;;;;;;;28.42;13.52;;;-3274.60;83.20;;;;;;5081101;28;20706;-61
2023/02/10 03:33:44;;;;;;;28.88;13.10;;;-3274.70;83.10;;;;;;5090846;28;20062;-65
2023/02/10 03:36:11;;;;;;;30.20;13.82;;;-3274.70;83.20;;;;;;5087856;28;20055;-60
2023/02/10 03:38:39;;;;;;;29.45;14.43;;;-3274.70;83.20;;;;;;5092828;28;20059;-60
2023/02/10 03:41:06;;;;;;;27.15;13.85;;;-3274.70;83.10;;;;;;5088595;28;20351;-70
2023/02/10 03:43:33;;;;;;;34.95;15.13;;;-3274.70;83.00;;;;;;5091726;28;20491;-72
2023/02/10 03:46:01;;;;;;;29.27;14.65;;;-3274.80;83.10;;;;;;5092721;28;20052;-60
2023/02/10 03:48:31;;;;;;;27.35;13.43;;;-3274.80;83.20;;;;;;5088255;28;20055;-60
2023/02/10 03:50:58;;;;;;;25.60;13.55;;;-3274.80;83.30;;;;;;5092845;28;20071;-62
2023/02/10 03:53:26;;;;;;;26.95;12.40;;;-3274.80;83.20;;;;;;5087699;28;20117;-60
2023/02/10 03:55:54;;;;;;;28.63;13.95;;;-3274.80;83.40;;;;;;5090554;28;20559;-72
2023/02/10 03:58:22;;;;;;;29.02;13.95;;;-3274.80;83.60;;;;;;5086794;28;20359;-71
2023/02/10 04:00:49;;;;;;;32.58;14.45;;;-3274.80;83.70;;;;;;5087046;28;20430;-71
2023/02/10 04:03:16;;;;;;;26.20;12.85;;;-3274.90;83.40;;;;;;5092076;28;20044;-72
2023/02/10 04:05:43;;;;;;;28.70;13.52;;;-3274.90;83.30;;;;;;5088253;28;20048;-62
2023/02/10 04:08:10;;;;;;;28.13;13.52;;;-3274.90;83.30;;;;;;5085849;28;20056;-60
2023/02/10 04:10:37;;;;;;;30.17;14.48;;;-3274.90;83.30;;;;;;5077415;28;20544;-62
2023/02/10 04:13:05;;;;;;;28.77;14.20;;;-3275.00;83.30;;;;;;5086293;28;20051;-62
2023/02/10 04:15:32;;;;;;;31.30;14.05;;;-3275.00;83.40;;;;;;5088392;28;20048;-61
2023/02/10 04:17:59;;;;;;;29.80;13.98;;;-3275.00;83.50;;;;;;5085873;28;20717;-62
2023/02/10 04:20:27;;;;;;;27.50;14.13;;;-3275.00;83.60;;;;;;5086647;28;20052;-61
2023/02/10 04:22:54;;;;;;;33.13;13.55;;;-3275.00;83.60;;;;;;5088163;28;20048;-65
2023/02/10 04:25:21;;;;;;;31.02;13.98;;;-3275.10;83.60;;;;;;5086272;28;20139;-65
2023/02/10 04:27:50;;;;;;;31.17;14.40;;;-3275.10;83.60;;;;;;5085908;28;20109;-64
2023/02/10 04:30:18;;;;;;;32.10;13.93;;;-3275.10;83.80;;;;;;5086206;28;20059;-65
2023/02/10 04:32:45;;;;;;;30.45;15.07;;;-3275.10;84.00;;;;;;5088188;28;20048;-61
2023/02/10 04:35:12;;;;;;;29.63;13.55;;;-3275.10;84.20;;;;;;5083929;28;20047;-62
2023/02/10 04:37:39;;;;;;;32.58;14.27;;;-3275.10;84.10;;;;;;5086767;28;20062;-61
2023/02/10 04:40:06;;;;;;;31.45;15.13;;;-3275.10;84.10;;;;;;5087500;28;20047;-60
2023/02/10 04:42:33;;;;;;;29.30;13.82;;;-3275.10;84.00;;;;;;5085577;28;20048;-61
2023/02/10 04:45:00;;;;;;;30.38;13.75;;;-3275.10;84.00;;;;;;5087946;28;20059;-61
2023/02/10 04:47:29;;;;;;;31.42;13.95;;;-3275.10;84.00;;;;;;5088342;28;20054;-61
2023/02/10 04:49:56;;;;;;;26.70;13.52;;;-3275.10;84.10;;;;;;5089157;28;20082;-60
2023/02/10 04:52:23;;;;;;;30.42;14.93;;;-3275.10;84.00;;;;;;5088330;28;20044;-64
2023/02/10 04:54:50;;;;;;;25.40;13.45;;;-3275.10;84.00;;;;;;5090096;28;20051;-66
2023/02/10 04:57:17;;;;;;;31.27;14.25;;;-3275.20;84.00;;;;;;5088541;28;20106;-64
2023/02/10 04:59:44;;;;;;;30.77;13.98;;;-3275.20;84.00;;;;;;5086649;28;20036;-64
2023/02/10 05:02:11;;;;;;;29.27;14.50;;;-3275.20;84.10;;;;;;5088372;28;20103;-62
2023/02/10 05:04:39;;;;;;;28.25;14.90;;;-3275.20;83.90;;;;;;5087810;28;20051;-62
2023/02/10 05:07:06;;;;;;;30.00;15.20;;;-3275.20;84.10;;;;;;5082735;28;20085;-61
2023/02/10 05:09:33;;;;;;;29.90;14.60;;;-3275.20;84.00;;;;;;5089028;28;20048;-60
2023/02/10 05:12:00;;;;;;;30.80;14.88;;;-3275.20;84.00;;;;;;5086243;28;20056;-62
2023/02/10 05:14:28;;;;;;;29.90;14.50;;;-3275.20;84.00;;;;;;5086482;28;20076;-62
2023/02/10 05:16:54;;;;;;;29.60;13.98;;;-3275.30;84.00;;;;;;5089815;28;20102;-61
2023/02/10 05:19:21;;;;;;;35.60;14.73;;;-3275.20;84.10;;;;;;5085278;28;20138;-62
2023/02/10 05:21:50;;;;;;;31.05;14.25;;;-3275.20;84.00;;;;;;5084083;28;20063;-59
2023/02/10 05:24:17;;;;;;;32.58;15.52;;;-3275.30;84.10;;;;;;5085881;28;20056;-60
2023/02/10 05:26:44;;;;;;;29.48;15.02;;;-3275.30;84.00;;;;;;5083526;28;20052;-59
2023/02/10 05:29:11;;;;;;;30.92;15.20;;;-3275.40;84.10;;;;;;5084023;28;20048;-61
2023/02/10 05:31:37;;;;;;;33.88;16.15;;;-3275.30;84.20;;;;;;5083489;28;20047;-65
2023/02/10 05:34:05;;;;;;;31.17;15.52;;;-3275.40;84.20;;;;;;5083881;28;20041;-64
2023/02/10 05:36:31;;;;;;;32.30;16.42;;;-3275.30;84.20;;;;;;5084915;28;20051;-71
2023/02/10 05:41:44;;;;;;;33.08;15.65;;;-3275.40;84.30;;;;;;5081043;28;20679;-60
2023/02/10 05:44:11;;;;;;;32.08;16.50;;;-3275.40;84.30;;;;;;5084919;28;20032;-61
2023/02/10 05:46:38;;;;;;;36.35;17.45;;;-3275.40;84.20;;;;;;5087289;28;20043;-64
2023/02/10 05:49:05;;;;;;;36.75;15.90;;;-3275.40;84.30;;;;;;5082817;28;20051;-64
2023/02/10 05:51:31;;;;;;;31.33;15.05;;;-3275.40;84.30;;;;;;5087366;28;20134;-62
2023/02/10 05:54:00;;;;;;;29.50;14.25;;;-3275.50;84.50;;;;;;5088312;28;20186;-61
2023/02/10 05:56:28;;;;;;;27.58;14.52;;;-3275.50;84.40;;;;;;5083915;28;20586;-71
2023/02/10 05:58:55;;;;;;;31.65;16.73;;;-3275.40;84.40;;;;;;5075287;28;20135;-72
2023/02/10 06:01:23;;;;;;;34.28;16.50;;;-3275.50;84.60;;;;;;5087202;28;20055;-71
2023/02/10 06:03:49;;;;;;;36.45;16.55;;;-3275.50;84.60;;;;;;5088401;28;20055;-73
2023/02/10 06:06:17;;;;;;;34.97;17.00;;;-3275.50;84.70;;;;;;5084459;28;20055;-72
2023/02/10 06:08:43;;;;;;;33.65;15.75;;;-3275.50;84.70;;;;;;5083894;28;20127;-71
2023/02/10 06:11:12;;;;;;;35.13;16.58;;;-3275.50;84.80;;;;;;5084870;28;20052;-62
2023/02/10 06:13:39;;;;;;;31.05;15.50;;;-3275.50;84.80;;;;;;5086598;28;20054;-62
2023/02/10 06:16:06;;;;;;;33.03;16.08;;;-3275.50;84.80;;;;;;5074867;28;20040;-61
2023/02/10 06:18:33;;;;;;;30.88;15.52;;;-3275.50;84.80;;;;;;5084535;28;20067;-62
2023/02/10 06:21:00;;;;;;;31.70;15.52;;;-3275.60;84.80;;;;;;5083203;28;20047;-72
2023/02/10 06:23:28;;;;;;;31.92;15.85;;;-3275.60;85.00;;;;;;5085325;28;20047;-72
2023/02/10 06:25:56;;;;;;;32.88;16.30;;;-3275.60;85.00;;;;;;5083816;28;20059;-59
2023/02/10 06:28:25;;;;;;;32.13;15.80;;;-3275.60;84.90;;;;;;5080958;28;20052;-58
2023/02/10 06:30:53;;;;;;;34.50;16.33;;;-3275.60;84.90;;;;;;5080867;28;20050;-72
2023/02/10 06:33:20;;;;;;;34.70;16.55;;;-3275.60;84.90;;;;;;5084137;28;20048;-70
2023/02/10 06:35:47;;;;;;;35.08;16.73;;;-3275.60;85.00;;;;;;5085144;28;20048;-71
2023/02/10 06:38:14;;;;;;;33.40;17.13;;;-3275.60;84.80;;;;;;5083180;28;20113;-71
2023/02/10 06:40:41;;;;;;;36.33;16.90;;;-3275.70;84.80;;;;;;5065052;28;20406;-61
2023/02/10 06:43:08;;;;;;;28.85;15.65;;;-3275.70;84.80;;;;;;5083119;28;20044;-60
2023/02/10 06:45:37;;;;;;;35.55;16.73;;;-3275.70;84.70;;;;;;5075719;28;20047;-62
2023/02/10 06:48:04;;;;;;;34.92;16.17;;;-3275.70;84.70;;;;;;5087292;28;20048;-61
2023/02/10 06:50:31;;;;;;;35.40;17.15;;;-3275.70;84.70;;;;;;5085776;28;20052;-63
2023/02/10 06:53:00;;;;;;;31.70;16.42;;;-3275.70;84.70;;;;;;5086819;28;20051;-61
2023/02/10 06:55:27;;;;;;;33.00;17.05;;;-3275.70;84.80;;;;;;5075620;28;20040;-61
2023/02/10 06:57:54;;;;;;;37.47;17.20;;;-3275.70;84.80;;;;;;5084452;28;20055;-59
2023/02/10 07:00:21;;;;;;;33.70;17.40;;;-3275.70;84.90;;;;;;5084535;28;20044;-59
2023/02/10 07:02:49;;;;;;;32.83;17.63;;;-3275.70;85.00;;;;;;5083434;28;20414;-70
2023/02/10 07:05:16;;;;;;;33.50;17.58;;;-3275.80;84.90;;;;;;5084110;28;20044;-69
2023/02/10 07:07:43;;;;;;;35.40;17.15;;;-3275.80;85.00;;;;;;5085391;28;20056;-70
2023/02/10 07:10:11;;;;;;;37.40;19.38;;;-3275.80;84.90;;;;;;5084373;28;20438;-69
2023/02/10 07:12:38;;;;;;;40.78;19.30;;;-3275.80;84.90;;;;;;5084194;28;20131;-64
2023/02/10 07:15:05;;;;;;;38.20;18.67;;;-3275.80;84.90;;;;;;5082147;28;20055;-65
2023/02/10 07:17:33;;;;;;;33.05;16.80;;;-3275.80;84.90;;;;;;5086928;28;20062;-71
2023/02/10 07:20:01;;;;;;;35.22;17.10;;;-3275.80;85.10;;;;;;5077388;28;20052;-71
2023/02/10 07:22:28;;;;;;;35.17;17.10;;;-3275.90;85.00;;;;;;5082692;28;20059;-72
2023/02/10 07:24:56;;;;;;;32.42;15.63;;;-3275.90;85.00;;;;;;5085351;28;20410;-71
2023/02/10 07:27:23;;;;;;;35.13;17.98;;;-3275.90;85.10;;;;;;5079738;28;20083;-71
2023/02/10 07:29:50;;;;;;;34.80;16.85;;;-3275.90;84.90;;;;;;5081886;28;20036;-71
2023/02/10 07:32:17;;;;;;;37.85;16.25;;;-3275.90;84.90;;;;;;5083872;28;20047;-62
2023/02/10 07:34:44;;;;;;;35.20;16.00;;;-3276.00;84.70;;;;;;5083567;28;20052;-61
2023/02/10 07:37:12;;;;;;;36.55;17.00;;;-3276.00;84.60;;;;;;5086139;28;20063;-62
2023/02/10 07:39:39;;;;;;;34.33;16.15;;;-3276.00;84.60;;;;;;5084194;28;20052;-61
2023/02/10 07:42:06;;;;;;;32.13;17.15;;;-3276.10;84.50;;;;;;5087700;28;20123;-70
2023/02/10 07:44:51;;;;;;;29.23;15.82;;;-3276.00;84.60;;;;;;5065696;28;20060;-71
2023/02/10 07:47:17;;;;;;;37.90;17.60;;;-3276.10;84.80;;;;;;5085478;28;20044;-61
2023/02/10 07:49:44;;;;;;;33.83;17.08;;;-3276.10;84.80;;;;;;5089126;28;20049;-62
2023/02/10 07:52:13;;;;;;;32.47;16.50;;;-3276.10;84.80;;;;;;5085681;28;20413;-61
2023/02/10 07:54:39;;;;;;;33.67;16.23;;;-3276.10;84.90;;;;;;5086694;28;20052;-60
2023/02/10 07:57:06;;;;;;;36.13;17.77;;;-3276.10;84.80;;;;;;5089377;28;20047;-70
2023/02/10 07:59:34;;;;;;;37.80;18.30;;;-3276.20;84.70;;;;;;5088607;28;20502;-70
2023/02/10 08:02:01;;;;;;;37.00;17.08;;;-3276.20;84.70;;;;;;5086338;28;20044;-63
2023/02/10 08:04:30;;;;;;;34.45;18.25;;;-3276.20;84.70;;;;;;5086931;28;20290;-65
2023/02/10 08:06:57;;;;;;;32.63;17.25;;;-3276.20;84.60;;;;;;5087953;28;20047;-61
2023/02/10 08:09:30;;;;;;;31.15;17.90;;;-3276.30;84.50;;;;;;5087581;28;20360;-60
2023/02/10 08:11:57;;;;;;;38.25;17.52;;;-3276.30;84.50;;;;;;5086106;28;20044;-62
2023/02/10 08:14:25;;;;;;;32.45;17.08;;;-3276.30;84.40;;;;;;5085361;28;20479;-60
2023/02/10 08:16:51;;;;;;;35.78;17.55;;;-3276.40;84.30;;;;;;5086730;28;20064;-64
2023/02/10 08:19:18;;;;;;;38.47;17.60;;;-3276.40;84.20;;;;;;5087793;28;20040;-65
2023/02/10 08:21:45;;;;;;;36.28;17.92;;;-3276.40;84.20;;;;;;5086448;28;20036;-59
2023/02/10 08:24:12;;;;;;;33.75;17.17;;;-3276.40;84.30;;;;;;5086611;28;20040;-59
2023/02/10 08:26:41;;;;;;;35.60;17.90;;;-3276.40;84.30;;;;;;5089936;28;20064;-62
2023/02/10 08:29:08;;;;;;;37.00;17.90;;;-3276.50;84.30;;;;;;5083294;28;20040;-62
2023/02/10 08:31:35;;;;;;;33.63;17.90;;;-3276.50;84.30;;;;;;5089599;28;20048;-64
2023/02/10 08:34:02;;;;;;;31.98;17.20;;;-3276.50;84.40;;;;;;5086296;28;21118;-64
2023/02/10 08:36:30;;;;;;;32.50;17.02;;;-3276.50;84.30;;;;;;5080015;28;20502;-60
2023/02/10 08:38:57;;;;;;;34.22;17.25;;;-3276.60;84.30;;;;;;5087671;28;20129;-61
2023/02/10 08:41:25;;;;;;;33.10;17.75;;;-3276.60;84.20;;;;;;5081922;28;20040;-60
2023/02/10 08:43:53;;;;;;;34.28;17.27;;;-3276.60;84.20;;;;;;5083291;28;20454;-61
2023/02/10 08:46:20;;;;;;;37.08;18.52;;;-3276.60;84.10;;;;;;5084719;28;20078;-62
2023/02/10 08:48:47;;;;;;;32.63;17.10;;;-3276.70;84.20;;;;;;5086179;28;20052;-60
2023/02/10 08:51:16;;;;;;;36.45;18.27;;;-3276.70;84.20;;;;;;5087141;28;20049;-65
2023/02/10 08:53:43;;;;;;;33.50;18.27;;;-3276.70;84.30;;;;;;5088590;28;20036;-67
2023/02/10 08:56:14;;;;;;;35.45;17.88;;;0.00;84.30;;;;;;5086147;28;20502;-72
2023/02/10 08:58:41;;;;;;;34.92;17.38;;;0.00;84.30;;;;;;5082483;28;20052;-71
2023/02/10 09:01:14;;;;;;;34.17;17.20;;;0.00;84.30;;;;;;5083637;28;20044;-65
2023/02/10 09:03:44;;;;;;;38.60;18.95;;;0.00;84.20;;;;;;5087629;28;20486;-64
2023/02/10 09:06:14;;;;;;;31.50;18.13;;;0.00;84.10;;;;;;5084624;28;20063;-59
2023/02/10 09:08:42;;;;;;;38.33;18.10;;;0.00;84.10;;;;;;5087967;28;20059;-60
2023/02/10 09:11:10;;;;;;;35.90;18.88;;;0.00;84.10;;;;;;5087898;28;20052;-61
2023/02/10 09:13:36;;;;;;;35.80;17.00;;;0.10;84.00;;;;;;5083276;28;20052;-61
2023/02/10 09:16:03;;;;;;;36.75;18.48;;;0.10;83.90;;;;;;5085418;28;20052;-72
2023/02/10 09:18:32;;;;;;;35.33;18.92;;;0.10;83.80;;;;;;5087405;28;20051;-72
2023/02/10 09:20:59;;;;;;;37.85;18.65;;;0.20;83.80;;;;;;5084277;28;20040;-66
2023/02/10 09:23:26;;;;;;;34.35;18.50;;;0.20;83.70;;;;;;5086417;28;20048;-65
2023/02/10 09:25:54;;;;;;;36.00;18.15;;;0.30;83.80;;;;;;5087437;28;20083;-63
2023/02/10 09:28:22;;;;;;;39.70;19.80;;;0.30;83.90;;;;;;5085205;28;20052;-61
2023/02/10 09:30:49;;;;;;;35.60;18.10;;;0.30;83.90;;;;;;5087093;28;20101;-60
2023/02/10 09:33:20;;;;;;;32.38;17.40;;;0.40;83.90;;;;;;5082875;28;20052;-58
2023/02/10 09:35:48;;;;;;;37.85;19.27;;;0.40;83.80;;;;;;5084861;28;20055;-61
2023/02/10 09:38:15;;;;;;;38.20;20.02;;;0.50;83.70;;;;;;5084586;28;20465;-60
2023/02/10 09:40:50;;;;;;;38.17;20.33;;;0.60;83.80;;;;;;5085155;28;20479;-60
2023/02/10 09:43:29;;;;;;;39.10;20.17;;;0.60;83.70;;;;;;5084054;28;20055;-60
2023/02/10 09:46:01;;;;;;;39.90;20.25;;;0.60;83.60;;;;;;5083924;28;20060;-59
2023/02/10 09:48:40;;;;;;;37.33;19.75;;;0.70;83.40;;;;;;5085683;28;20065;-59
2023/02/10 09:51:16;;;;;;;39.95;20.75;;;0.70;83.30;;;;;;5081697;28;20089;-62
2023/02/10 09:53:43;;;;;;;34.95;19.83;;;0.70;83.60;;;;;;5085728;28;20051;-61
2023/02/10 09:56:16;;;;;;;35.63;20.17;;;0.70;83.40;;;;;;5085909;28;20051;-61
2023/02/10 09:58:46;;;;;;;38.78;20.30;;;0.80;83.40;;;;;;5084711;28;20728;-62
2023/02/10 10:01:17;;;;;;;39.17;19.92;;;0.80;83.30;;;;;;5086111;28;20410;-60
2023/02/10 10:03:51;;;;;;;36.67;19.60;;;0.80;83.30;;;;;;5082113;28;20123;-62
2023/02/10 10:06:24;;;;;;;36.45;19.85;;;0.90;83.30;;;;;;5073380;28;20233;-61
2023/02/10 10:09:07;;;;;;;42.25;20.55;;;0.80;83.50;;;;;;5086569;28;20167;-61
2023/02/10 10:11:38;;;;;;;34.60;18.77;;;0.90;83.50;;;;;;5080430;28;20115;-60
2023/02/10 10:14:16;;;;;;;40.70;20.00;;;0.90;83.40;;;;;;5085564;28;20051;-62
2023/02/10 10:17:10;;;;;;;39.95;21.13;;;0.90;83.20;;;;;;5080300;28;20086;-62
2023/02/10 10:19:54;;;;;;;39.25;19.63;;;1.00;83.20;;;;;;5082099;28;20044;-61
2023/02/10 10:22:36;;;;;;;40.05;19.92;;;0.90;83.20;;;;;;5079605;28;21991;-61
2023/02/10 10:25:23;;;;;;;38.97;20.25;;;1.00;83.30;;;;;;5080334;28;20163;-61
2023/02/10 10:27:59;;;;;;;34.67;18.70;;;1.00;83.10;;;;;;5084592;28;20135;-62
2023/02/10 10:30:33;;;;;;;35.53;20.05;;;1.00;82.90;;;;;;5078303;28;20048;-61
2023/02/10 10:33:05;;;;;;;38.63;20.70;;;1.10;82.90;;;;;;5085019;28;20404;-60
2023/02/10 10:35:36;;;;;;;37.83;20.30;;;1.10;82.90;;;;;;5080773;28;20044;-60
2023/02/10 10:38:12;;;;;;;34.55;18.70;;;1.10;82.90;;;;;;5079313;28;20205;-62
2023/02/10 10:40:41;;;;;;;41.08;20.20;;;1.10;82.80;;;;;;5084697;28;20054;-62
2023/02/10 10:43:16;;;;;;;38.75;20.23;;;1.20;82.60;;;;;;5083283;28;20040;-61
2023/02/10 10:45:48;;;;;;;37.75;20.50;;;1.20;82.40;;;;;;5079352;28;20055;-61
2023/02/10 10:48:19;;;;;;;35.03;19.08;;;1.20;82.50;;;;;;5086298;28;20063;-62
2023/02/10 10:50:46;;;;;;;38.53;21.05;;;1.30;82.40;;;;;;5084893;28;20051;-61
2023/02/10 10:53:17;;;;;;;33.10;19.48;;;1.30;82.20;;;;;;5086218;28;20064;-62
2023/02/10 10:55:48;;;;;;;38.03;21.40;;;1.30;82.30;;;;;;5085169;28;20371;-62
2023/02/10 10:58:24;;;;;;;;;;;1.40;82.20;;;;;;5080936;28;20051;-61
2023/02/10 11:00:52;;;;;;;33.08;19.08;;;1.40;82.10;;;;;;5087741;28;19939;-60
2023/02/10 11:03:19;;;;;;;35.10;19.65;;;1.50;82.00;;;;;;5087014;28;20068;-62
2023/02/10 11:05:59;;;;;;;38.67;21.60;;;1.50;81.90;;;;;;5086501;28;20439;-61
2023/02/10 11:08:34;;;;;;;37.13;18.60;;;1.60;81.80;;;;;;5086795;28;20115;-62
2023/02/10 11:11:02;;;;;;;37.92;19.58;;;1.60;81.60;;;;;;5088061;28;20056;-62
2023/02/10 11:13:32;;;;;;;38.78;20.25;;;1.70;81.50;;;;;;5087097;28;20050;-62
2023/02/10 11:16:03;;;;;;;39.95;20.05;;;1.70;81.40;;;;;;5086800;28;20051;-61
2023/02/10 11:18:31;;;;;;;35.83;18.83;;;1.70;81.50;;;;;;5090338;28;20050;-62
2023/02/10 11:20:59;;;;;;;35.30;19.00;;;1.70;81.30;;;;;;5090875;28;20052;-62
2023/02/10 11:23:37;;;;;;;33.05;18.98;;;1.80;81.20;;;;;;5088328;28;20127;-61
2023/02/10 11:26:06;;;;;;;36.05;18.88;;;1.80;81.30;;;;;;5089463;28;20059;-62
2023/02/10 11:28:35;;;;;;;39.17;19.70;;;1.90;81.20;;;;;;5091397;28;20101;-60
2023/02/10 11:31:06;;;;;;;39.95;19.63;;;1.90;81.10;;;;;;5091740;28;20055;-61
2023/02/10 11:33:38;;;;;;;37.97;19.20;;;1.90;81.00;;;;;;5089348;28;20040;-62
2023/02/10 11:36:09;;;;;;;35.20;20.23;;;2.00;80.90;;;;;;5090928;28;20052;-62
2023/02/10 11:38:37;;;;;;;33.90;19.43;;;2.00;81.00;;;;;;5090219;28;20056;-63
2023/02/10 11:41:08;;;;;;;35.58;18.90;;;2.00;80.80;;;;;;5087625;28;20489;-62
2023/02/10 11:43:40;;;;;;;34.60;18.55;;;2.00;80.90;;;;;;5090313;28;20055;-62
2023/02/10 11:46:17;;;;;;;31.75;18.70;;;2.00;80.80;;;;;;5088640;28;20123;-63
2023/02/10 11:48:53;;;;;;;37.00;19.15;;;2.00;80.90;;;;;;5088981;28;20048;-62
2023/02/10 11:51:20;;;;;;;34.70;18.38;;;2.00;80.90;;;;;;5090507;28;20051;-60
2023/02/10 11:53:50;;;;;;;34.42;18.75;;;2.00;80.70;;;;;;5090206;28;20462;-62
2023/02/10 11:58:58;;;;;;;35.25;18.90;;;2.00;80.80;;;;;;5088103;28;20080;-62
2023/02/10 11:59:22;;;;;;;34.47;18.55;;;2.10;80.90;;;;;;5089561;28;20055;-61
2023/02/10 12:01:54;;;;;;;35.00;18.63;;;2.10;80.90;;;;;;5090535;28;20094;-61
2023/02/10 12:04:59;;;;;;;33.65;18.38;;;2.20;80.80;;;;;;5090031;28;20055;-62
2023/02/10 12:07:38;;;;;;;32.13;17.67;;;2.20;80.70;;;;;;5019309;28;20057;-62
2023/02/10 12:10:15;;;;;;;35.40;19.63;;;2.30;80.70;;;;;;5018712;28;20045;-61
2023/02/10 12:12:46;;;;;;;34.17;18.70;;;2.30;80.60;;;;;;5064062;28;20048;-62
2023/02/10 12:15:24;;;;;;;33.53;18.40;;;2.40;80.50;;;;;;5088724;28;20791;-60
2023/02/10 12:18:05;;;;;;;31.92;18.73;;;2.50;80.70;;;;;;5090633;28;20138;-61
2023/02/10 12:20:49;;;;;;;37.70;18.90;;;2.60;80.60;;;;;;5090650;28;20121;-63
2023/02/10 12:23:37;;;;;;;38.40;18.48;;;2.60;80.70;;;;;;5090092;28;20052;-63
2023/02/10 12:26:11;;;;;;;32.53;18.23;;;2.70;80.60;;;;;;5089071;28;20040;-61
2023/02/10 12:28:49;;;;;;;34.20;18.77;;;2.70;80.60;;;;;;5088975;28;20074;-61
2023/02/10 12:31:27;;;;;;;38.88;18.90;;;2.70;80.40;;;;;;5085856;28;20162;-62